createdAt,value
2017-03-15T12:50:32.804Z,16932
2017-03-15T12:51:05.114Z,18784
2017-03-15T12:51:37.423Z,18912
2017-03-15T12:52:09.735Z,21344
2017-03-15T12:52:42.044Z,22304
2017-03-15T12:53:14.369Z,23744
2017-03-15T12:53:46.680Z,24928
2017-03-15T12:54:18.994Z,24928
2017-03-15T12:54:51.302Z,29504
2017-03-15T12:55:23.630Z,35296
2017-03-15T12:55:55.942Z,35744
2017-03-15T12:56:28.231Z,42720
2017-03-15T12:57:00.530Z,46912
2017-03-15T12:57:32.828Z,45984
2017-03-15T12:58:05.140Z,47584
2017-03-15T12:58:37.453Z,50368
2017-03-15T12:59:09.753Z,53760
2017-03-15T12:59:42.054Z,54368
2017-03-15T13:00:14.368Z,55680
2017-03-15T13:00:46.675Z,54848
2017-03-15T13:01:19.006Z,50880
2017-03-15T13:01:51.318Z,42752
2017-03-15T13:02:23.637Z,31136
2017-03-15T13:02:55.941Z,21792
2017-03-15T13:03:28.240Z,18720
2017-03-15T13:04:00.560Z,18048
2017-03-15T13:04:32.862Z,18432
2017-03-15T13:05:05.148Z,15432
2017-03-15T13:05:37.455Z,16528
2017-03-15T13:06:09.765Z,14748
2017-03-15T13:06:42.075Z,16128
2017-03-15T13:07:14.384Z,16124
2017-03-15T13:07:46.702Z,16864
2017-03-15T13:08:19.020Z,18240
2017-03-15T13:08:51.346Z,22688
2017-03-15T13:09:23.668Z,35104
2017-03-15T13:09:55.970Z,40512
2017-03-15T13:10:28.267Z,53312
2017-03-15T13:11:00.564Z,53344
2017-03-15T13:11:32.883Z,51264
2017-03-15T13:12:05.195Z,52736
2017-03-15T13:12:37.499Z,51072
2017-03-15T13:13:09.802Z,46080
2017-03-15T13:13:42.115Z,50944
2017-03-15T13:14:14.419Z,49248
2017-03-15T13:14:46.723Z,48128
2017-03-15T13:15:19.042Z,48480
2017-03-15T13:15:51.359Z,49376
2017-03-15T13:16:23.660Z,52288
2017-03-15T13:16:55.962Z,50272
2017-03-15T13:17:28.275Z,50272
2017-03-15T13:18:00.573Z,48544
2017-03-15T13:18:32.887Z,50432
2017-03-15T13:19:05.191Z,29120
2017-03-15T13:19:37.511Z,39680
2017-03-15T13:20:09.831Z,43648
2017-03-15T13:20:42.177Z,50176
2017-03-15T13:21:14.480Z,52288
2017-03-15T13:21:46.794Z,53120
2017-03-15T13:22:19.104Z,51872
2017-03-15T13:22:51.415Z,54848
2017-03-15T13:23:23.722Z,55776
2017-03-15T13:23:56.044Z,56672
2017-03-15T13:24:28.359Z,52416
2017-03-15T13:25:00.660Z,47008
2017-03-15T13:26:52.248Z,54496
2017-03-15T13:27:24.565Z,34944
2017-03-15T13:27:56.872Z,55712
2017-03-15T13:28:29.208Z,54944
2017-03-15T13:30:20.821Z,54496
2017-03-15T13:30:53.133Z,56640
2017-03-15T13:31:25.441Z,56928
2017-03-15T13:31:57.753Z,57184
2017-03-15T13:32:30.075Z,55936
2017-03-15T13:33:02.384Z,56768
2017-03-15T13:33:34.687Z,56960
2017-03-15T13:34:07.049Z,57792
2017-03-15T13:34:39.368Z,58272
2017-03-15T13:35:11.993Z,52160
2017-03-15T13:35:44.510Z,56352
2017-03-15T13:36:17.105Z,44704
2017-03-15T13:36:49.417Z,50112
2017-03-15T13:37:21.753Z,52928
2017-03-15T13:37:54.074Z,55040
2017-03-15T13:38:26.396Z,54496
2017-03-15T13:38:58.726Z,57248
2017-03-15T13:39:31.042Z,58912
2017-03-15T13:40:03.363Z,56896
2017-03-15T13:40:35.712Z,55936
2017-03-15T13:41:08.041Z,54976
2017-03-15T13:41:40.358Z,57664
2017-03-15T13:42:12.685Z,56992
2017-03-15T13:42:44.990Z,57088
2017-03-15T13:43:17.365Z,26464
2017-03-15T13:43:49.686Z,10740
2017-03-15T13:44:22.010Z,10332
2017-03-15T13:44:54.313Z,11244
2017-03-15T13:45:26.620Z,20096
2017-03-15T13:45:58.944Z,30240
2017-03-15T13:46:31.251Z,10620
2017-03-15T13:47:03.571Z,9844
2017-03-15T13:47:35.879Z,9568
2017-03-15T13:48:08.202Z,26048
2017-03-15T13:48:40.507Z,48608
2017-03-15T13:49:12.826Z,59328
2017-03-15T13:49:45.147Z,46272
2017-03-15T13:50:17.448Z,41632
2017-03-15T13:50:49.751Z,55264
2017-03-15T13:51:22.062Z,57024
2017-03-15T13:51:54.369Z,44736
2017-03-15T13:52:26.678Z,45312
2017-03-15T13:52:58.980Z,27904
2017-03-15T13:53:31.333Z,48512
2017-03-15T13:54:03.844Z,41184
2017-03-15T13:54:36.169Z,40864
2017-03-15T13:55:08.500Z,53408
2017-03-15T13:55:40.822Z,51552
2017-03-15T13:56:13.128Z,50400
2017-03-15T13:56:45.542Z,19168
2017-03-15T13:57:17.902Z,20512
2017-03-15T13:57:50.222Z,17032
2017-03-15T13:58:22.536Z,51488
2017-03-15T13:58:54.849Z,51872
2017-03-15T13:59:27.160Z,56800
2017-03-15T13:59:59.466Z,47680
2017-03-15T14:00:31.773Z,20800
2017-03-15T14:01:04.113Z,12740
2017-03-15T14:01:36.538Z,55360
2017-03-15T14:02:08.851Z,50016
2017-03-15T14:02:41.151Z,53728
2017-03-15T14:03:13.469Z,55840
2017-03-15T14:03:45.799Z,50016
2017-03-15T14:04:18.116Z,50336
2017-03-15T14:04:50.432Z,55904
2017-03-15T14:05:22.742Z,55328
2017-03-15T14:05:55.049Z,15548
2017-03-15T14:06:28.316Z,45408
2017-03-15T14:07:01.033Z,11284
2017-03-15T14:07:33.579Z,43680
2017-03-15T14:08:06.237Z,32480
2017-03-15T14:08:38.848Z,41920
2017-03-15T14:09:12.414Z,52896
2017-03-15T14:09:45.063Z,46272
2017-03-15T14:10:17.712Z,42240
2017-03-15T14:10:50.285Z,17968
2017-03-15T14:11:23.343Z,17848
2017-03-15T14:11:56.635Z,14612
2017-03-15T14:12:28.967Z,20512
2017-03-15T14:13:01.287Z,50912
2017-03-15T14:13:33.601Z,53312
2017-03-15T14:14:05.905Z,12540
2017-03-15T14:14:38.214Z,46944
2017-03-15T14:15:10.519Z,41088
2017-03-15T14:17:02.285Z,30304
2017-03-15T14:17:34.619Z,38912
2017-03-15T14:18:06.969Z,10060
2017-03-15T14:18:39.275Z,9648
2017-03-15T14:19:11.583Z,9932
2017-03-15T14:21:03.292Z,52320
2017-03-15T14:21:35.591Z,46272
2017-03-15T14:22:07.885Z,42912
2017-03-15T14:22:40.233Z,52096
2017-03-15T14:23:13.199Z,41888
2017-03-15T14:23:45.528Z,44480
2017-03-15T14:24:17.868Z,52096
2017-03-15T14:24:50.154Z,50816
2017-03-15T14:25:22.555Z,14756
2017-03-15T14:25:54.852Z,40576
2017-03-15T14:26:27.147Z,28480
2017-03-15T14:26:59.443Z,51392
2017-03-15T14:27:32.767Z,46912
2017-03-15T14:28:06.162Z,36928
2017-03-15T14:28:38.442Z,44992
2017-03-15T14:29:10.858Z,48576
2017-03-15T14:29:43.141Z,48576
2017-03-15T14:30:15.429Z,47616
2017-03-15T14:30:47.842Z,48128
2017-03-15T14:31:20.128Z,44960
2017-03-15T14:31:52.429Z,31392
2017-03-15T14:32:24.732Z,33472
2017-03-15T14:32:57.036Z,43456
2017-03-15T14:33:29.359Z,46016
2017-03-15T14:34:01.980Z,43712
2017-03-15T14:34:34.461Z,43616
2017-03-15T14:35:06.812Z,50752
2017-03-15T14:35:39.250Z,50624
2017-03-15T14:36:11.569Z,37696
2017-03-15T14:36:43.883Z,50496
2017-03-15T14:37:16.210Z,48416
2017-03-15T14:37:48.730Z,42464
2017-03-15T14:38:21.035Z,44800
2017-03-15T14:38:53.343Z,45792
2017-03-15T14:39:25.646Z,14580
2017-03-15T14:39:57.952Z,48032
2017-03-15T14:40:30.700Z,41600
2017-03-15T14:41:03.476Z,38112
2017-03-15T14:41:35.893Z,47200
2017-03-15T14:42:08.273Z,49216
2017-03-15T14:42:40.588Z,33440
2017-03-15T14:43:12.892Z,40064
2017-03-15T14:43:45.214Z,36064
2017-03-15T14:44:17.532Z,38976
2017-03-15T14:44:49.893Z,36576
2017-03-15T14:45:22.194Z,33472
2017-03-15T14:45:54.521Z,37888
2017-03-15T14:46:26.845Z,38944
2017-03-15T14:46:59.159Z,35008
2017-03-15T14:47:31.482Z,34912
2017-03-15T14:48:03.782Z,41376
2017-03-15T14:48:36.086Z,26624
2017-03-15T14:49:08.391Z,35328
2017-03-15T14:49:40.701Z,42048
2017-03-15T14:50:13.007Z,43904
2017-03-15T14:50:45.311Z,41600
2017-03-15T14:51:17.620Z,32416
2017-03-15T14:51:50.751Z,25632
2017-03-15T14:52:23.040Z,38752
2017-03-15T14:52:55.335Z,38464
2017-03-15T14:53:27.605Z,38944
2017-03-15T14:53:59.934Z,38944
2017-03-15T14:54:32.269Z,39808
2017-03-15T14:55:04.563Z,38304
2017-03-15T14:55:36.840Z,36448
2017-03-15T14:56:09.124Z,36768
2017-03-15T14:56:42.262Z,14300
2017-03-15T14:57:14.544Z,7020
2017-03-15T14:57:46.837Z,30272
2017-03-15T14:58:19.238Z,20640
2017-03-15T14:58:51.513Z,30080
2017-03-15T14:59:24.713Z,39200
2017-03-15T14:59:57.782Z,32640
2017-03-15T15:00:30.070Z,35712
2017-03-15T15:01:03.199Z,8056
2017-03-15T15:01:35.489Z,7248
2017-03-15T15:02:07.790Z,19552
2017-03-15T15:02:40.076Z,24896
2017-03-15T15:03:12.345Z,34624
2017-03-15T15:03:45.213Z,35840
2017-03-15T15:04:17.536Z,30432
2017-03-15T15:04:49.824Z,10304
2017-03-15T15:05:22.107Z,7552
2017-03-15T15:05:54.407Z,11892
2017-03-15T15:06:26.691Z,20352
2017-03-15T15:06:59.631Z,11156
2017-03-15T15:07:31.914Z,8840
2017-03-15T15:08:04.197Z,24128
2017-03-15T15:08:36.467Z,26464
2017-03-15T15:09:08.745Z,29632
2017-03-15T15:09:41.036Z,28896
2017-03-15T15:10:13.302Z,29664
2017-03-15T15:10:45.580Z,31136
2017-03-15T15:11:17.880Z,26912
2017-03-15T15:11:50.166Z,27520
2017-03-15T15:12:22.482Z,29664
2017-03-15T15:12:54.792Z,30112
2017-03-15T15:13:27.102Z,30592
2017-03-15T15:13:59.398Z,17664
2017-03-15T15:14:31.718Z,17920
2017-03-15T15:15:04.022Z,19168
2017-03-15T15:15:36.318Z,18784
2017-03-15T15:16:08.635Z,16784
2017-03-15T15:16:40.935Z,18400
2017-03-15T15:17:13.237Z,19456
2017-03-15T15:17:45.561Z,6692
2017-03-15T15:18:17.852Z,7692
2017-03-15T15:18:50.149Z,6580
2017-03-15T15:19:22.469Z,7632
2017-03-15T15:19:54.768Z,14140
2017-03-15T15:20:27.087Z,14532
2017-03-15T15:20:59.400Z,7936
2017-03-15T15:21:31.698Z,5396
2017-03-15T15:22:04.004Z,4548
2017-03-15T15:22:36.323Z,4500
2017-03-15T15:23:08.629Z,5296
2017-03-15T15:23:40.936Z,7784
2017-03-15T15:24:13.238Z,9720
2017-03-15T15:24:45.550Z,7964
2017-03-15T15:25:17.860Z,7344
2017-03-15T15:25:50.168Z,6640
2017-03-15T15:26:22.493Z,7096
2017-03-15T15:26:54.790Z,6296
2017-03-15T15:27:27.086Z,6356
2017-03-15T15:27:59.380Z,6268
2017-03-15T15:28:31.679Z,6048
2017-03-15T15:29:03.969Z,5108
2017-03-15T15:29:36.268Z,5208
2017-03-15T15:30:08.579Z,5564
2017-03-15T15:30:40.879Z,5940
2017-03-15T15:31:13.201Z,6340
2017-03-15T15:31:45.515Z,6196
2017-03-15T15:32:17.811Z,6088
2017-03-15T15:32:50.120Z,5948
2017-03-15T15:33:22.426Z,4940
2017-03-15T15:33:54.727Z,3888
2017-03-15T15:34:27.030Z,4268
2017-03-15T15:34:59.325Z,4180
2017-03-15T15:35:31.627Z,4000
2017-03-15T15:36:03.936Z,4172
2017-03-15T15:36:36.241Z,4300
2017-03-15T15:37:08.542Z,4072
2017-03-15T15:37:40.848Z,4360
2017-03-15T15:38:13.157Z,4684
2017-03-15T15:38:45.459Z,4208
2017-03-15T15:39:17.761Z,4100
2017-03-15T15:39:50.058Z,4028
2017-03-15T15:40:22.364Z,4064
2017-03-15T15:40:54.664Z,3820
2017-03-15T15:41:26.960Z,3956
2017-03-15T15:41:59.264Z,4068
2017-03-15T15:42:31.564Z,4088
2017-03-15T15:43:03.875Z,4124
2017-03-15T15:43:36.168Z,4032
2017-03-15T15:44:08.470Z,3852
2017-03-15T15:44:40.772Z,3812
2017-03-15T15:45:13.091Z,3856
2017-03-15T15:45:45.413Z,3812
2017-03-15T15:46:17.713Z,3472
2017-03-15T15:46:50.026Z,3444
2017-03-15T15:47:22.342Z,3424
2017-03-15T15:47:54.647Z,3232
2017-03-15T15:48:26.942Z,3300
2017-03-15T15:48:59.245Z,3612
2017-03-15T15:49:31.543Z,3556
2017-03-15T15:50:04.079Z,3808
2017-03-15T15:50:36.510Z,3840
2017-03-15T15:51:08.810Z,3828
2017-03-15T15:51:41.118Z,3804
2017-03-15T15:52:13.420Z,3468
2017-03-15T15:52:45.734Z,3196
2017-03-15T15:53:18.044Z,3212
2017-03-15T15:53:50.361Z,3400
2017-03-15T15:54:22.679Z,3376
2017-03-15T15:54:54.992Z,3408
2017-03-15T15:55:27.303Z,3380
2017-03-15T15:55:59.604Z,3328
2017-03-15T15:56:31.897Z,3288
2017-03-15T15:57:04.203Z,3272
2017-03-15T15:57:36.503Z,3272
2017-03-15T15:58:08.807Z,3244
2017-03-15T15:58:41.107Z,2956
2017-03-15T15:59:13.410Z,2984
2017-03-15T15:59:45.726Z,2928
2017-03-15T16:00:18.043Z,2772
2017-03-15T16:00:50.357Z,2820
2017-03-15T16:01:22.690Z,2916
2017-03-15T16:01:55.005Z,2980
2017-03-15T16:02:27.269Z,3000
2017-03-15T16:02:59.564Z,2988
2017-03-15T16:03:32.029Z,3004
2017-03-15T16:04:04.329Z,2960
2017-03-15T16:04:36.606Z,2856
2017-03-15T16:05:08.940Z,2760
2017-03-15T16:05:41.237Z,2648
2017-03-15T16:06:13.502Z,2676
2017-03-15T16:06:45.772Z,2556
2017-03-15T16:07:18.045Z,2448
2017-03-15T16:07:50.824Z,2348
2017-03-15T16:08:23.127Z,2300
2017-03-15T16:08:55.402Z,2280
2017-03-15T16:09:27.662Z,2148
2017-03-15T16:09:59.953Z,2036
2017-03-15T16:10:32.255Z,1968
2017-03-15T16:11:04.534Z,1944
2017-03-15T16:11:36.799Z,1920
2017-03-15T16:12:09.102Z,1920
2017-03-15T16:12:41.425Z,1908
2017-03-15T16:13:13.720Z,1900
2017-03-15T16:13:46.033Z,1956
2017-03-15T16:14:18.347Z,2068
2017-03-15T16:14:50.647Z,2220
2017-03-15T16:15:23.059Z,2372
2017-03-15T16:15:55.369Z,2468
2017-03-15T16:16:27.679Z,2512
2017-03-15T16:16:59.970Z,2520
2017-03-15T16:17:32.283Z,2512
2017-03-15T16:18:04.574Z,2508
2017-03-15T16:18:36.885Z,2500
2017-03-15T16:19:09.190Z,2496
2017-03-15T16:19:41.494Z,2512
2017-03-15T16:20:13.818Z,2528
2017-03-15T16:20:46.114Z,2532
2017-03-15T16:21:18.429Z,2532
2017-03-15T16:21:50.699Z,2520
2017-03-15T16:22:22.991Z,2508
2017-03-15T16:22:55.267Z,2484
2017-03-15T16:23:27.593Z,2456
2017-03-15T16:23:59.877Z,2416
2017-03-15T16:24:32.157Z,2376
2017-03-15T16:25:04.439Z,2332
2017-03-15T16:25:37.324Z,2284
2017-03-15T16:26:10.203Z,2248
2017-03-15T16:26:42.482Z,2200
2017-03-15T16:27:15.868Z,2148
2017-03-15T16:27:48.155Z,2116
2017-03-15T16:28:20.442Z,2092
2017-03-15T16:28:52.709Z,2076
2017-03-15T16:29:24.978Z,2064
2017-03-15T16:29:57.403Z,2036
2017-03-15T16:30:29.675Z,2004
2017-03-15T16:31:01.956Z,1960
2017-03-15T16:31:34.839Z,1920
2017-03-15T16:32:07.116Z,1888
2017-03-15T16:32:39.393Z,1864
2017-03-15T16:33:11.660Z,1828
2017-03-15T16:33:43.977Z,1796
2017-03-15T16:34:16.261Z,1764
2017-03-15T16:34:48.545Z,1740
2017-03-15T16:35:20.839Z,1728
2017-03-15T16:35:53.095Z,1712
2017-03-15T16:36:25.848Z,1664
2017-03-15T16:36:58.136Z,1584
2017-03-15T16:37:30.411Z,1516
2017-03-15T16:38:02.696Z,1476
2017-03-15T16:38:34.985Z,1468
2017-03-15T16:39:07.332Z,1496
2017-03-15T16:39:39.613Z,1528
2017-03-15T16:40:11.877Z,1544
2017-03-15T16:40:44.161Z,1516
2017-03-15T16:41:16.438Z,1460
2017-03-15T16:41:48.734Z,1388
2017-03-15T16:42:21.022Z,1324
2017-03-15T16:42:53.357Z,1292
2017-03-15T16:43:25.681Z,1300
2017-03-15T16:43:57.964Z,1324
2017-03-15T16:44:30.226Z,1332
2017-03-15T16:45:02.511Z,1328
2017-03-15T16:45:34.819Z,1312
2017-03-15T16:46:07.160Z,1312
2017-03-15T16:46:39.434Z,1352
2017-03-15T16:47:11.712Z,1360
2017-03-15T16:47:43.986Z,1320
2017-03-15T16:48:16.229Z,1276
2017-03-15T16:48:48.502Z,1240
2017-03-15T16:49:20.791Z,1220
2017-03-15T16:49:53.070Z,1216
2017-03-15T16:50:25.338Z,1192
2017-03-15T16:50:57.625Z,1164
2017-03-15T16:51:29.901Z,1144
2017-03-15T16:52:02.234Z,1136
2017-03-15T16:52:34.543Z,1116
2017-03-15T16:53:06.843Z,1084
2017-03-15T16:53:39.168Z,1076
2017-03-15T16:54:11.469Z,1060
2017-03-15T16:54:43.771Z,1044
2017-03-15T16:55:16.077Z,1004
2017-03-15T16:55:48.395Z,964
2017-03-15T16:56:20.712Z,928
2017-03-15T16:56:53.032Z,912
2017-03-15T16:57:25.342Z,908
2017-03-15T16:57:57.656Z,884
2017-03-15T16:58:29.950Z,844
2017-03-15T16:59:02.249Z,832
2017-03-15T16:59:34.553Z,808
2017-03-15T17:00:06.856Z,788
2017-03-15T17:00:39.164Z,752
2017-03-15T17:01:11.467Z,724
2017-03-15T17:01:43.774Z,692
2017-03-15T17:02:16.091Z,664
2017-03-15T17:02:48.383Z,640
2017-03-15T17:03:20.683Z,616
2017-03-15T17:03:52.990Z,600
2017-03-15T17:04:25.295Z,588
2017-03-15T17:04:57.601Z,580
2017-03-15T17:05:29.905Z,572
2017-03-15T17:06:02.225Z,560
2017-03-15T17:06:34.525Z,548
2017-03-15T17:07:06.824Z,532
2017-03-15T17:07:39.130Z,520
2017-03-15T17:08:11.413Z,504
2017-03-15T17:08:43.710Z,492
2017-03-15T17:09:16.015Z,480
2017-03-15T17:09:48.321Z,472
2017-03-15T17:10:20.641Z,456
2017-03-15T17:10:52.944Z,440
2017-03-15T17:11:25.250Z,432
2017-03-15T17:11:57.536Z,416
2017-03-15T17:12:29.804Z,408
2017-03-15T17:13:02.067Z,396
2017-03-15T17:13:34.335Z,380
2017-03-15T17:14:06.611Z,368
2017-03-15T17:14:38.899Z,352
2017-03-15T17:15:11.194Z,332
2017-03-15T17:15:43.468Z,320
2017-03-15T17:16:15.789Z,304
2017-03-15T17:16:48.106Z,288
2017-03-15T17:17:20.381Z,280
2017-03-15T17:17:52.660Z,268
2017-03-15T17:18:25.088Z,260
2017-03-15T17:18:57.392Z,252
2017-03-15T17:19:29.651Z,244
2017-03-15T17:20:01.980Z,240
2017-03-15T17:20:34.366Z,232
2017-03-15T17:21:06.666Z,224
2017-03-15T17:21:38.947Z,216
2017-03-15T17:22:11.543Z,212
2017-03-15T17:22:44.170Z,204
2017-03-15T17:23:16.470Z,196
2017-03-15T17:23:48.782Z,188
2017-03-15T17:24:21.080Z,184
2017-03-15T17:24:53.384Z,172
2017-03-15T17:25:25.682Z,164
2017-03-15T17:25:57.998Z,156
2017-03-15T17:26:30.292Z,148
2017-03-15T17:27:02.594Z,140
2017-03-15T17:27:34.905Z,136
2017-03-15T17:28:07.203Z,128
2017-03-15T17:28:39.511Z,120
2017-03-15T17:29:11.818Z,120
2017-03-15T17:29:44.119Z,108
2017-03-15T17:30:16.431Z,108
2017-03-15T17:30:48.741Z,100
2017-03-15T17:31:21.054Z,96
2017-03-15T17:31:53.347Z,92
2017-03-15T17:32:25.635Z,84
2017-03-15T17:32:58.854Z,80
2017-03-15T17:33:31.144Z,76
2017-03-15T17:34:03.431Z,72
2017-03-15T17:34:36.701Z,68
2017-03-15T17:35:08.979Z,64
2017-03-15T17:35:41.276Z,60
2017-03-15T17:36:13.555Z,56
2017-03-15T17:36:45.847Z,56
2017-03-15T17:37:18.113Z,48
2017-03-15T17:37:50.390Z,48
2017-03-15T17:38:23.292Z,44
2017-03-15T17:38:55.572Z,40
2017-03-15T17:39:27.846Z,40
2017-03-15T17:40:00.148Z,36
2017-03-15T17:40:32.441Z,32
2017-03-15T17:41:04.740Z,32
2017-03-15T17:41:37.073Z,28
2017-03-15T17:42:09.358Z,28
2017-03-15T17:42:41.721Z,24
2017-03-15T17:43:14.001Z,20
2017-03-15T17:43:46.314Z,20
2017-03-15T17:44:18.577Z,20
2017-03-15T17:44:50.833Z,16
2017-03-15T17:45:23.145Z,16
2017-03-15T17:45:55.534Z,16
2017-03-15T17:46:27.805Z,12
2017-03-15T17:47:00.087Z,12
2017-03-15T17:47:32.369Z,12
2017-03-15T17:48:04.665Z,12
2017-03-15T17:48:36.937Z,8
2017-03-15T17:49:09.205Z,8
2017-03-15T17:49:41.481Z,8
2017-03-15T17:50:13.767Z,8
2017-03-15T17:50:46.101Z,8
2017-03-15T17:51:18.373Z,4
2017-03-15T17:51:50.658Z,8
2017-03-15T17:52:22.962Z,4
2017-03-15T17:52:55.301Z,4
2017-03-15T17:53:27.576Z,4
2017-03-15T17:53:59.858Z,4
2017-03-15T17:54:32.161Z,4
2017-03-15T17:55:04.457Z,4
2017-03-15T17:55:36.750Z,4
2017-03-15T17:56:09.018Z,0
2017-03-15T17:56:41.294Z,0
2017-03-15T17:57:13.575Z,4
2017-03-15T17:57:45.921Z,4
2017-03-15T17:58:18.212Z,4
2017-03-15T17:58:50.500Z,4
2017-03-15T17:59:22.882Z,0
2017-03-15T17:59:55.788Z,0
2017-03-15T18:00:28.065Z,0
2017-03-15T18:01:00.353Z,0
2017-03-15T18:01:32.665Z,0
2017-03-15T18:02:04.955Z,0
2017-03-15T18:02:37.221Z,0
2017-03-15T18:03:09.496Z,0
2017-03-15T18:03:41.773Z,0
2017-03-15T18:04:14.055Z,0
2017-03-15T18:04:46.318Z,0
2017-03-15T18:05:18.594Z,0
2017-03-15T18:05:50.891Z,0
2017-03-15T18:06:23.175Z,0
2017-03-15T18:06:55.438Z,0
2017-03-15T18:07:27.761Z,0
2017-03-15T18:08:00.032Z,0
2017-03-15T18:08:32.813Z,0
2017-03-15T18:09:05.771Z,0
2017-03-15T18:09:38.031Z,0
2017-03-15T18:10:10.318Z,0
2017-03-15T18:10:42.622Z,0
2017-03-15T18:11:14.892Z,0
2017-03-15T18:11:47.158Z,0
2017-03-15T18:12:20.252Z,0
2017-03-15T18:12:52.549Z,0
2017-03-15T18:13:24.850Z,0
2017-03-15T18:13:57.165Z,0
2017-03-15T18:14:29.472Z,0
2017-03-15T18:15:01.783Z,0
2017-03-15T18:15:34.082Z,0
2017-03-15T18:16:06.389Z,0
2017-03-15T18:16:38.688Z,0
2017-03-15T18:17:11.014Z,0
2017-03-15T18:17:43.320Z,0
2017-03-15T18:18:15.623Z,0
2017-03-15T18:18:47.920Z,0
2017-03-15T18:19:20.223Z,0
2017-03-15T18:19:52.525Z,0
2017-03-15T18:20:24.827Z,0
2017-03-15T18:20:57.124Z,0
2017-03-15T18:21:29.434Z,0
2017-03-15T18:22:01.740Z,0
2017-03-15T18:22:34.832Z,0
2017-03-15T18:23:07.104Z,0
2017-03-15T18:23:39.381Z,0
2017-03-15T18:24:11.765Z,0
2017-03-15T18:24:44.055Z,0
2017-03-15T18:25:16.318Z,0
2017-03-15T18:25:48.605Z,0
2017-03-15T18:26:20.894Z,0
2017-03-15T18:26:53.211Z,0
2017-03-15T18:27:25.520Z,0
2017-03-15T18:27:57.787Z,0
2017-03-15T18:28:30.135Z,0
2017-03-15T18:29:02.416Z,0
2017-03-15T18:29:34.683Z,0
2017-03-15T18:30:06.971Z,0
2017-03-15T18:30:39.338Z,0
2017-03-15T18:31:11.735Z,0
2017-03-15T18:31:44.052Z,0
2017-03-15T18:32:16.324Z,0
2017-03-15T18:32:48.619Z,0
2017-03-15T18:33:20.886Z,0
2017-03-15T18:33:53.141Z,0
2017-03-15T18:34:25.429Z,0
2017-03-15T18:34:57.698Z,0
2017-03-15T18:35:29.990Z,0
2017-03-15T18:36:02.258Z,0
2017-03-15T18:36:34.529Z,0
2017-03-15T18:37:06.809Z,0
2017-03-15T18:37:39.111Z,0
2017-03-15T18:38:11.413Z,0
2017-03-15T18:38:43.686Z,0
2017-03-15T18:39:15.961Z,0
2017-03-15T18:39:48.222Z,0
2017-03-15T18:40:20.616Z,0
2017-03-15T18:40:52.909Z,0
2017-03-15T18:41:25.765Z,0
2017-03-15T18:41:58.781Z,0
2017-03-15T18:42:31.052Z,0
2017-03-15T18:43:03.367Z,0
2017-03-15T18:43:35.738Z,0
2017-03-15T18:44:08.007Z,0
2017-03-15T18:44:40.292Z,0
2017-03-15T18:45:12.715Z,0
2017-03-15T18:45:44.993Z,0
2017-03-15T18:46:17.267Z,0
2017-03-15T18:46:49.565Z,0
2017-03-15T18:47:21.849Z,0
2017-03-15T18:47:54.148Z,0
2017-03-15T18:48:26.413Z,0
2017-03-15T18:48:58.704Z,0
2017-03-15T18:49:30.984Z,0
2017-03-15T18:50:03.267Z,0
2017-03-15T18:50:35.590Z,0
2017-03-15T18:51:07.862Z,0
2017-03-15T18:51:40.150Z,0
2017-03-15T18:52:12.426Z,0
2017-03-15T18:52:44.780Z,0
2017-03-15T18:53:17.056Z,0
2017-03-15T18:53:49.383Z,0
2017-03-15T18:54:21.666Z,0
2017-03-15T18:54:53.925Z,0
2017-03-15T18:55:26.188Z,0
2017-03-15T18:55:58.481Z,0
2017-03-15T18:56:30.751Z,0
2017-03-15T18:57:03.083Z,0
2017-03-15T18:57:36.364Z,0
2017-03-15T18:58:08.632Z,0
2017-03-15T18:58:40.932Z,0
2017-03-15T18:59:13.211Z,0
2017-03-15T18:59:45.492Z,0
2017-03-15T19:00:18.444Z,0
2017-03-15T19:00:50.731Z,0
2017-03-15T19:01:23.010Z,0
2017-03-15T19:01:55.268Z,0
2017-03-15T19:02:27.569Z,0
2017-03-15T19:02:59.842Z,0
2017-03-15T19:03:32.119Z,0
2017-03-15T19:04:05.333Z,0
2017-03-15T19:04:37.602Z,0
2017-03-15T19:05:09.904Z,0
2017-03-15T19:05:42.185Z,0
2017-03-15T19:06:14.465Z,0
2017-03-15T19:06:46.752Z,0
2017-03-15T19:07:19.028Z,0
2017-03-15T19:07:51.307Z,0
2017-03-15T19:08:23.587Z,0
2017-03-15T19:08:55.869Z,0
2017-03-15T19:09:28.132Z,0
2017-03-15T19:10:00.490Z,0
2017-03-15T19:10:32.764Z,0
2017-03-15T19:11:05.771Z,0
2017-03-15T19:11:38.154Z,0
2017-03-15T19:12:10.967Z,0
2017-03-15T19:12:43.970Z,0
2017-03-15T19:13:16.852Z,0
2017-03-15T19:13:49.543Z,0
2017-03-15T19:14:22.093Z,0
2017-03-15T19:14:54.544Z,0
2017-03-15T19:15:27.096Z,0
2017-03-15T19:15:59.852Z,0
2017-03-15T19:16:32.678Z,0
2017-03-15T19:17:05.450Z,0
2017-03-15T19:17:38.018Z,0
2017-03-15T19:18:10.391Z,0
2017-03-15T19:18:42.700Z,0
2017-03-15T19:19:15.014Z,0
2017-03-15T19:19:47.327Z,0
2017-03-15T19:20:19.625Z,0
2017-03-15T19:20:51.941Z,0
2017-03-15T19:21:24.240Z,0
2017-03-15T19:21:56.573Z,0
2017-03-15T19:22:28.901Z,0
2017-03-15T19:23:01.286Z,0
2017-03-15T19:23:33.716Z,0
2017-03-15T19:24:06.097Z,0
2017-03-15T19:24:38.463Z,0
2017-03-15T19:25:10.799Z,0
2017-03-15T19:25:43.129Z,0
2017-03-15T19:26:15.448Z,0
2017-03-15T19:26:47.781Z,0
2017-03-15T19:27:20.299Z,0
2017-03-15T19:27:53.247Z,0
2017-03-15T19:28:26.471Z,0
2017-03-15T19:28:59.834Z,0
2017-03-15T19:29:32.921Z,0
2017-03-15T19:30:05.719Z,0
2017-03-15T19:30:38.386Z,0
2017-03-15T19:31:10.875Z,0
2017-03-15T19:31:43.267Z,0
2017-03-15T19:32:15.558Z,0
2017-03-15T19:32:47.857Z,0
2017-03-15T19:33:20.140Z,0
2017-03-15T19:33:52.444Z,0
2017-03-15T19:34:24.715Z,0
2017-03-15T19:34:56.988Z,0
2017-03-15T19:35:29.288Z,0
2017-03-15T19:36:02.430Z,0
2017-03-15T19:36:34.722Z,0
2017-03-15T19:37:07.828Z,0
2017-03-15T19:37:40.110Z,0
2017-03-15T19:38:12.382Z,0
2017-03-15T19:38:44.672Z,0
2017-03-15T19:39:16.959Z,0
2017-03-15T19:39:49.806Z,0
2017-03-15T19:40:22.075Z,0
2017-03-15T19:40:54.365Z,0
2017-03-15T19:41:26.669Z,0
2017-03-15T19:41:58.967Z,0
2017-03-15T19:42:31.292Z,0
2017-03-15T19:43:03.586Z,0
2017-03-15T19:43:35.906Z,0
2017-03-15T19:44:08.208Z,0
2017-03-15T19:44:40.499Z,0
2017-03-15T19:45:12.792Z,0
2017-03-15T19:45:45.097Z,0
2017-03-15T19:46:17.407Z,0
2017-03-15T19:46:49.718Z,0
2017-03-15T19:47:22.034Z,0
2017-03-15T19:47:54.349Z,0
2017-03-15T19:48:26.659Z,0
2017-03-15T19:48:58.971Z,0
2017-03-15T19:49:31.276Z,0
2017-03-15T19:50:03.601Z,0
2017-03-15T19:50:35.911Z,0
2017-03-15T19:51:08.218Z,0
2017-03-15T19:51:40.519Z,0
2017-03-15T19:52:12.812Z,0
2017-03-15T19:52:45.114Z,0
2017-03-15T19:53:17.404Z,0
2017-03-15T19:53:49.711Z,0
2017-03-15T19:54:21.999Z,0
2017-03-15T19:54:54.306Z,0
2017-03-15T19:55:26.610Z,0
2017-03-15T19:55:58.913Z,0
2017-03-15T19:56:31.235Z,0
2017-03-15T19:57:03.538Z,0
2017-03-15T19:57:35.839Z,0
2017-03-15T19:58:08.152Z,0
2017-03-15T19:58:40.457Z,0
2017-03-15T19:59:12.754Z,0
2017-03-15T19:59:45.062Z,0
2017-03-15T20:00:17.361Z,0
2017-03-15T20:00:49.681Z,0
2017-03-15T20:01:21.990Z,0
2017-03-15T20:01:54.283Z,0
2017-03-15T20:02:26.555Z,0
2017-03-15T20:02:58.834Z,0
2017-03-15T20:03:31.239Z,0
2017-03-15T20:04:04.297Z,0
2017-03-15T20:04:36.550Z,0
2017-03-15T20:05:08.826Z,0
2017-03-15T20:05:41.800Z,0
2017-03-15T20:06:14.950Z,0
2017-03-15T20:06:47.234Z,0
2017-03-15T20:07:19.502Z,0
2017-03-15T20:07:51.792Z,0
2017-03-15T20:08:24.871Z,0
2017-03-15T20:08:57.168Z,0
2017-03-15T20:09:29.434Z,0
2017-03-15T20:10:01.737Z,0
2017-03-15T20:10:34.048Z,0
2017-03-15T20:11:06.332Z,0
2017-03-15T20:11:38.616Z,0
2017-03-15T20:12:10.880Z,0
2017-03-15T20:12:43.171Z,0
2017-03-15T20:13:15.456Z,0
2017-03-15T20:13:47.716Z,0
2017-03-15T20:14:20.000Z,0
2017-03-15T20:14:52.281Z,0
2017-03-15T20:15:25.364Z,0
2017-03-15T20:15:57.629Z,0
2017-03-15T20:16:29.937Z,0
2017-03-15T20:17:02.248Z,0
2017-03-15T20:17:34.543Z,0
2017-03-15T20:18:06.831Z,0
2017-03-15T20:18:39.144Z,0
2017-03-15T20:19:11.431Z,0